National Weather Service Raw Text Product

Displaying AFOS PIL: TAFALO Received: 2018-12-06 10:03 UTC


999 
FTUS43 KDMX 061003 AAA
TAFALO
TAF AMD
KALO 061003Z 0610/0706 33012KT P6SM SKC
     FM061800 32011KT P6SM SCT030
     FM070100 31007KT P6SM SCT250=